Almena, Kansas
Current Conditions -  °F | °C
As of 5:53 AM on Wednesday 28 Jan 2015 (Local Time) from KHLC Reporting Station
Clear Clear  
Wind Chill: 30°   Ceiling: Unl
Heat Index: 35°   Visibility: 10mi
Dew Point: 28°   Wind: 6mph
Humidity: 76%   Direction: 280°W
Pressure: 29.82"   Gusts: NA
Location:  39.89°N, 99.71°W
Report Text: KHLC 281153Z AUTO 28005KT 10SM CLR 02/M02 A2982 RMK AO2 SLP095 T00171022 10067 20017 56011
Loading
Personal Weather Stations






























Interactive Weather Map New forecast layout! Learn more

10-Day Weather Forecast

Advertisements
Track Severe Weather on mobile